Al Cenac — WDD5445 — position and weather

sailwx.info

Track history (hours):
 
Tides and Currents Weather Stations Pressure Air Temp Water Temp Dewpoint Dewpoint Depression Visibility Wind Speed Wind Dir Waves Ship Positions

Al Cenac

Owner: Caillou Island Towing Co, Inc., Houma, LA. More information available from US FCC via Universal Licensing System and Coast Guard Vessel Documentation Center.

Last reported at 2015-Aug-30 05:32 UTC. Time now 2015-Aug-30 05:59 UTC.
Position N 40°38' W 074°08'.

; draft 10 m.

MMSI: 367158530.

Date/timePositionNaut miles runAvg speedWind from/ knotsBaromVisibWave heightAir tempDewpointWater temp
2015-Aug-30 05:32N 40°38' W 074°08'0 0.0
2015-Aug-30 04:33N 40°38' W 074°08'0 0.0
2015-Aug-30 03:30N 40°38' W 074°08'0 0.0
2015-Aug-30 02:31N 40°38' W 074°08'0 0.0
2015-Aug-30 01:32N 40°38' W 074°08'0 0.0
2015-Aug-30 00:32N 40°38' W 074°08'0 0.0
2015-Aug-29 23:33N 40°38' W 074°08'0 0.0
2015-Aug-29 22:28N 40°38' W 074°08'0 0.0
2015-Aug-29 21:28N 40°38' W 074°08'0 0.0
2015-Aug-29 20:29N 40°38' W 074°08'0 0.0
2015-Aug-29 19:33N 40°38' W 074°08'0 0.0
2015-Aug-29 18:30N 40°38' W 074°08'0 0.0
2015-Aug-29 17:19N 40°38' W 074°08'0 0.0
2015-Aug-29 16:26N 40°38' W 074°08'0 0.0
2015-Aug-29 15:32N 40°38' W 074°08'0 0.0
2015-Aug-29 14:33N 40°38' W 074°08'0 0.0
2015-Aug-29 13:28N 40°38' W 074°08'0 0.0
2015-Aug-29 12:28N 40°38' W 074°08'4 3.3
2015-Aug-29 11:17N 40°36' W 074°12'1 1.5
2015-Aug-29 10:33N 40°38' W 074°12'3 3.3
2015-Aug-29 09:32N 40°39' W 074°08'0 0.0
2015-Aug-29 08:32N 40°39' W 074°08'0 0.0
2015-Aug-29 07:33N 40°39' W 074°08'0 0.0
2015-Aug-29 06:31N 40°39' W 074°08'0 0.0
2015-Aug-29 05:31N 40°39' W 074°08'0 0.0
2015-Aug-29 04:32N 40°39' W 074°08'0 0.0
2015-Aug-29 03:33N 40°39' W 074°08'3 3.0
2015-Aug-29 02:26N 40°38' W 074°12'0 0.0
2015-Aug-29 00:33N 40°38' W 074°12'3 3.1
2015-Aug-28 23:26N 40°38' W 074°08'0 0.0
2015-Aug-28 21:27N 40°38' W 074°08'0 0.0
2015-Aug-28 20:28N 40°38' W 074°08'0 0.0
2015-Aug-28 19:29N 40°38' W 074°08'0 0.0
2015-Aug-28 18:26N 40°38' W 074°08'0 0.0
2015-Aug-28 17:30N 40°38' W 074°08'0 0.0
2015-Aug-28 16:31N 40°38' W 074°08'0 0.0
2015-Aug-28 15:31N 40°38' W 074°08'3 3.0
2015-Aug-28 14:33N 40°38' W 074°12'5 2.4
2015-Aug-28 12:25N 40°34' W 074°14'5 4.7
2015-Aug-28 11:27N 40°38' W 074°12'1 0.2
2015-Aug-28 07:33N 40°37' W 074°12'1 0.3
2015-Aug-28 03:27N 40°36' W 074°12'0 0.1
2015-Aug-28 02:12N 40°36' W 074°12'0 0.2
2015-Aug-28 01:12N 40°36' W 074°12'1 0.7
2015-Aug-27 23:33N 40°37' W 074°12'4 3.2
2015-Aug-27 22:24N 40°38' W 074°08'0 0.0
2015-Aug-27 21:29N 40°38' W 074°08'0 0.0
2015-Aug-27 20:30N 40°38' W 074°08'0 0.0
2015-Aug-27 19:31N 40°38' W 074°08'0 0.0
2015-Aug-27 18:25N 40°38' W 074°08'0 0.0
2015-Aug-27 17:32N 40°38' W 074°08'0 0.0
2015-Aug-27 16:33N 40°38' W 074°08'0 0.0
2015-Aug-27 15:33N 40°38' W 074°08'0 0.0
2015-Aug-27 14:31N 40°38' W 074°08'0 0.0
2015-Aug-27 13:23N 40°38' W 074°08'0 0.0
2015-Aug-27 12:29N 40°38' W 074°08'0 0.0
2015-Aug-27 11:30N 40°38' W 074°08'0 0.0
2015-Aug-27 10:25N 40°38' W 074°08'0 0.0
2015-Aug-27 09:31N 40°38' W 074°08'0 0.0
2015-Aug-27 08:20N 40°38' W 074°08'0 0.0
2015-Aug-27 07:32N 40°38' W 074°08'0 0.0
2015-Aug-27 06:27N 40°38' W 074°08'0 0.0
2015-Aug-27 05:31N 40°38' W 074°08'0 0.0
2015-Aug-27 04:25N 40°38' W 074°08'0 0.0
2015-Aug-27 02:27N 40°38' W 074°08'0 0.0
2015-Aug-27 01:27N 40°38' W 074°08'0 0.0
2015-Aug-27 00:31N 40°38' W 074°08'0 0.0
2015-Aug-26 23:32N 40°38' W 074°08'0 0.0
2015-Aug-26 22:32N 40°38' W 074°08'1 0.7
2015-Aug-26 21:33N 40°38' W 074°09'0 0.0
2015-Aug-26 08:33N 40°39' W 074°08'0 0.3
2015-Aug-26 07:33N 40°38' W 074°08'0 0.0
2015-Aug-26 04:32N 40°38' W 074°08'1 1.0
2015-Aug-26 03:27N 40°39' W 074°07'1 1.1
2015-Aug-26 02:30N 40°39' W 074°08'0 0.0
2015-Aug-26 01:31N 40°39' W 074°08'0 0.0
2015-Aug-26 00:31N 40°39' W 074°08'0 0.0
2015-Aug-25 23:32N 40°39' W 074°08'0 0.0
2015-Aug-25 22:32N 40°39' W 074°08'2 0.4
2015-Aug-25 18:33N 40°39' W 074°10'2 1.3
2015-Aug-25 17:17N 40°38' W 074°08'0 0.0
2015-Aug-25 16:30N 40°38' W 074°08'0 0.0
2015-Aug-25 15:28N 40°38' W 074°08'0 0.0
2015-Aug-25 14:31N 40°38' W 074°08'1 0.6
2015-Aug-25 13:33N 40°38' W 074°09'2 2.2
2015-Aug-25 12:33N 40°38' W 074°11'2 2.1
2015-Aug-25 11:29N 40°36' W 074°12'0 0.0
2015-Aug-25 10:30N 40°36' W 074°12'3 1.0
2015-Aug-25 07:21N 40°33' W 074°14'6 7.3
2015-Aug-25 06:33N 40°39' W 074°11'2 2.4
2015-Aug-25 05:31N 40°38' W 074°08'0 0.0
2015-Aug-25 04:31N 40°38' W 074°08'0 0.0
2015-Aug-25 03:32N 40°38' W 074°08'0 0.0
2015-Aug-25 02:12N 40°38' W 074°08'0 0.0
2015-Aug-25 01:25N 40°38' W 074°08'0 0.0
2015-Aug-25 00:28N 40°38' W 074°08'1 0.4
2015-Aug-24 21:32N 40°38' W 074°10'1 0.6
2015-Aug-24 19:28N 40°38' W 074°08'0 0.0
2015-Aug-24 18:29N 40°38' W 074°08'0 0.0
2015-Aug-24 17:29N 40°38' W 074°08'0 0.0
2015-Aug-24 16:24N 40°38' W 074°08'0 0.0
2015-Aug-24 15:31N 40°38' W 074°08'0 0.0
2015-Aug-24 13:32N 40°38' W 074°08'0 0.0
2015-Aug-24 12:29N 40°38' W 074°08'0 0.0
2015-Aug-24 11:23N 40°38' W 074°08'0 0.0
2015-Aug-24 10:33N 40°38' W 074°08'0 0.0
2015-Aug-24 09:33N 40°38' W 074°08'0 0.0
2015-Aug-24 08:31N 40°38' W 074°08'0 0.0
2015-Aug-24 06:26N 40°38' W 074°08'0 0.0
2015-Aug-24 05:18N 40°38' W 074°08'0 0.0
2015-Aug-24 04:13N 40°38' W 074°08'0 0.0
2015-Aug-24 03:25N 40°38' W 074°08'0 0.0
2015-Aug-24 02:32N 40°38' W 074°08'0 0.0
2015-Aug-24 01:21N 40°38' W 074°08'0 0.0
2015-Aug-24 00:33N 40°38' W 074°08'0 0.0
2015-Aug-23 23:31N 40°39' W 074°08'0 0.0
2015-Aug-23 22:32N 40°39' W 074°08'0 0.0
2015-Aug-23 21:20N 40°38' W 074°08'0 0.0
2015-Aug-23 20:26N 40°38' W 074°08'0 0.0
2015-Aug-23 19:27N 40°38' W 074°08'0 0.0
2015-Aug-23 18:22N 40°38' W 074°08'0 0.0
2015-Aug-23 17:28N 40°38' W 074°08'0 0.0
2015-Aug-23 16:26N 40°38' W 074°08'0 0.0
2015-Aug-23 15:29N 40°38' W 074°08'0 0.4
2015-Aug-23 14:31N 40°39' W 074°08'6 3.2
2015-Aug-23 12:32N 40°33' W 074°14'6 5.9
2015-Aug-23 11:33N 40°39' W 074°11'2 1.7
2015-Aug-23 10:22N 40°38' W 074°08'0 0.0
2015-Aug-23 09:29N 40°38' W 074°08'0 0.0
2015-Aug-23 08:29N 40°38' W 074°08'0 0.0
2015-Aug-23 07:30N 40°38' W 074°08'0 0.0
2015-Aug-23 06:31N 40°38' W 074°08'0 0.0
2015-Aug-23 05:31N 40°38' W 074°08'0 0.0
2015-Aug-23 04:26N 40°38' W 074°08'5 4.0
2015-Aug-23 03:14N 40°35' W 074°13'4 5.7
2015-Aug-23 02:33N 40°39' W 074°11'2 2.2
2015-Aug-23 01:31N 40°38' W 074°08'0 0.0
2015-Aug-23 00:27N 40°38' W 074°08'0 0.0
2015-Aug-22 23:22N 40°38' W 074°08'0 0.0
2015-Aug-22 22:26N 40°38' W 074°08'0 0.0
2015-Aug-22 21:32N 40°38' W 074°08'0 0.0
2015-Aug-22 20:30N 40°38' W 074°08'0 0.0
2015-Aug-22 19:25N 40°38' W 074°08'0 0.0
2015-Aug-22 18:31N 40°38' W 074°08'2 2.6
2015-Aug-22 17:33N 40°39' W 074°05'2 2.4
2015-Aug-22 16:32N 40°38' W 074°08'0 0.0
2015-Aug-22 15:32N 40°38' W 074°08'0 0.0
2015-Aug-22 14:33N 40°38' W 074°08'0 0.0
2015-Aug-22 13:27N 40°38' W 074°08'0 0.0
2015-Aug-22 12:28N 40°38' W 074°08'0 0.0
2015-Aug-22 11:29N 40°38' W 074°08'0 0.0
2015-Aug-22 10:32N 40°38' W 074°08'0 0.0
2015-Aug-22 09:24N 40°38' W 074°08'0 0.0
2015-Aug-22 08:31N 40°38' W 074°08'0 0.0
2015-Aug-22 07:31N 40°38' W 074°08'0 0.0
2015-Aug-22 06:26N 40°38' W 074°08'0 0.0
2015-Aug-22 05:33N 40°38' W 074°08'0 0.0
2015-Aug-22 04:33N 40°38' W 074°08'0 0.0
2015-Aug-22 03:28N 40°38' W 074°08'0 0.0
2015-Aug-22 02:29N 40°38' W 074°08'0 0.0
2015-Aug-22 01:32N 40°38' W 074°08'0 0.0
2015-Aug-22 00:30N 40°38' W 074°08'0 0.2
2015-Aug-21 23:33N 40°39' W 074°08'4 3.1
2015-Aug-21 22:18N 40°36' W 074°12'0 0.0
2015-Aug-21 21:25N 40°36' W 074°12'4 4.2
2015-Aug-21 20:28N 40°38' W 074°08'0 0.0
2015-Aug-21 19:33N 40°38' W 074°08'0 0.0
2015-Aug-21 18:31N 40°38' W 074°08'0 0.0
2015-Aug-21 17:32N 40°38' W 074°08'0 0.0
2015-Aug-21 16:09N 40°38' W 074°08'0 0.0
2015-Aug-21 15:33N 40°38' W 074°08'0 0.0
2015-Aug-21 14:28N 40°38' W 074°08'0 0.0
2015-Aug-21 13:22N 40°38' W 074°08'0 0.1
2015-Aug-21 12:33N 40°39' W 074°08'4 3.4
2015-Aug-21 11:27N 40°37' W 074°12'5 5.5
2015-Aug-21 10:33N 40°39' W 074°07'1 1.1
2015-Aug-21 09:33N 40°38' W 074°08'0 0.0
2015-Aug-21 08:33N 40°38' W 074°08'0 0.0
2015-Aug-21 07:30N 40°38' W 074°08'0 0.0
2015-Aug-21 06:25N 40°38' W 074°08'0 0.0
2015-Aug-21 05:31N 40°38' W 074°08'0 0.0
2015-Aug-21 04:32N 40°38' W 074°08'0 0.0
2015-Aug-21 03:33N 40°38' W 074°08'0 0.0
2015-Aug-21 02:33N 40°38' W 074°08'0 0.0
2015-Aug-21 01:31N 40°38' W 074°08'2 1.7
2015-Aug-21 00:34N 40°39' W 074°10'4 3.8
2015-Aug-20 23:31N 40°35' W 074°12'4 3.5
2015-Aug-20 22:27N 40°32' W 074°15'1 1.0
2015-Aug-20 21:13N 40°33' W 074°15'4 2.0
2015-Aug-20 19:16N 40°37' W 074°12'5 6.6
2015-Aug-20 18:33N 40°39' W 074°07'0 0.0
2015-Aug-20 17:33N 40°39' W 074°07'1 0.5
2015-Aug-20 16:31N 40°39' W 074°07'0 0.0
2015-Aug-20 15:32N 40°39' W 074°07'0 0.1
2015-Aug-20 14:33N 40°39' W 074°07'  
Track history (hours):
 
Tides and Currents Weather Stations Pressure Air Temp Water Temp Dewpoint Dewpoint Depression Visibility Wind Speed Wind Dir Waves Ship Positions

Al Cenac

Owner: Caillou Island Towing Co, Inc., Houma, LA. More information available from US FCC via Universal Licensing System and Coast Guard Vessel Documentation Center.

Last reported at 2015-Aug-30 05:32 UTC. Time now 2015-Aug-30 05:59 UTC.
Position N 40°38' W 074°08'.

; draft 10 m.

MMSI: 367158530.

Date/timePositionNaut miles runAvg speedWind from/ knotsBaromVisibWave heightAir tempDewpointWater temp
2015-Aug-30 05:32N 40°38' W 074°08'0 0.0
2015-Aug-30 04:33N 40°38' W 074°08'0 0.0
2015-Aug-30 03:30N 40°38' W 074°08'0 0.0
2015-Aug-30 02:31N 40°38' W 074°08'0 0.0
2015-Aug-30 01:32N 40°38' W 074°08'0 0.0
2015-Aug-30 00:32N 40°38' W 074°08'0 0.0
2015-Aug-29 23:33N 40°38' W 074°08'0 0.0
2015-Aug-29 22:28N 40°38' W 074°08'0 0.0
2015-Aug-29 21:28N 40°38' W 074°08'0 0.0
2015-Aug-29 20:29N 40°38' W 074°08'0 0.0
2015-Aug-29 19:33N 40°38' W 074°08'0 0.0
2015-Aug-29 18:30N 40°38' W 074°08'0 0.0
2015-Aug-29 17:19N 40°38' W 074°08'0 0.0
2015-Aug-29 16:26N 40°38' W 074°08'0 0.0
2015-Aug-29 15:32N 40°38' W 074°08'0 0.0
2015-Aug-29 14:33N 40°38' W 074°08'0 0.0
2015-Aug-29 13:28N 40°38' W 074°08'0 0.0
2015-Aug-29 12:28N 40°38' W 074°08'4 3.3
2015-Aug-29 11:17N 40°36' W 074°12'1 1.5
2015-Aug-29 10:33N 40°38' W 074°12'3 3.3
2015-Aug-29 09:32N 40°39' W 074°08'0 0.0
2015-Aug-29 08:32N 40°39' W 074°08'0 0.0
2015-Aug-29 07:33N 40°39' W 074°08'0 0.0
2015-Aug-29 06:31N 40°39' W 074°08'0 0.0
2015-Aug-29 05:31N 40°39' W 074°08'0 0.0
2015-Aug-29 04:32N 40°39' W 074°08'0 0.0
2015-Aug-29 03:33N 40°39' W 074°08'3 3.0
2015-Aug-29 02:26N 40°38' W 074°12'0 0.0
2015-Aug-29 00:33N 40°38' W 074°12'3 3.1
2015-Aug-28 23:26N 40°38' W 074°08'0 0.0
2015-Aug-28 21:27N 40°38' W 074°08'0 0.0
2015-Aug-28 20:28N 40°38' W 074°08'0 0.0
2015-Aug-28 19:29N 40°38' W 074°08'0 0.0
2015-Aug-28 18:26N 40°38' W 074°08'0 0.0
2015-Aug-28 17:30N 40°38' W 074°08'0 0.0
2015-Aug-28 16:31N 40°38' W 074°08'0 0.0
2015-Aug-28 15:31N 40°38' W 074°08'3 3.0
2015-Aug-28 14:33N 40°38' W 074°12'5 2.4
2015-Aug-28 12:25N 40°34' W 074°14'5 4.7
2015-Aug-28 11:27N 40°38' W 074°12'1 0.2
2015-Aug-28 07:33N 40°37' W 074°12'1 0.3
2015-Aug-28 03:27N 40°36' W 074°12'0 0.1
2015-Aug-28 02:12N 40°36' W 074°12'0 0.2
2015-Aug-28 01:12N 40°36' W 074°12'1 0.7
2015-Aug-27 23:33N 40°37' W 074°12'4 3.2
2015-Aug-27 22:24N 40°38' W 074°08'0 0.0
2015-Aug-27 21:29N 40°38' W 074°08'0 0.0
2015-Aug-27 20:30N 40°38' W 074°08'0 0.0
2015-Aug-27 19:31N 40°38' W 074°08'0 0.0
2015-Aug-27 18:25N 40°38' W 074°08'0 0.0
2015-Aug-27 17:32N 40°38' W 074°08'0 0.0
2015-Aug-27 16:33N 40°38' W 074°08'0 0.0
2015-Aug-27 15:33N 40°38' W 074°08'0 0.0
2015-Aug-27 14:31N 40°38' W 074°08'0 0.0
2015-Aug-27 13:23N 40°38' W 074°08'0 0.0
2015-Aug-27 12:29N 40°38' W 074°08'0 0.0
2015-Aug-27 11:30N 40°38' W 074°08'0 0.0
2015-Aug-27 10:25N 40°38' W 074°08'0 0.0
2015-Aug-27 09:31N 40°38' W 074°08'0 0.0
2015-Aug-27 08:20N 40°38' W 074°08'0 0.0
2015-Aug-27 07:32N 40°38' W 074°08'0 0.0
2015-Aug-27 06:27N 40°38' W 074°08'0 0.0
2015-Aug-27 05:31N 40°38' W 074°08'0 0.0
2015-Aug-27 04:25N 40°38' W 074°08'0 0.0
2015-Aug-27 02:27N 40°38' W 074°08'0 0.0
2015-Aug-27 01:27N 40°38' W 074°08'0 0.0
2015-Aug-27 00:31N 40°38' W 074°08'0 0.0
2015-Aug-26 23:32N 40°38' W 074°08'0 0.0
2015-Aug-26 22:32N 40°38' W 074°08'1 0.7
2015-Aug-26 21:33N 40°38' W 074°09'0 0.0
2015-Aug-26 08:33N 40°39' W 074°08'0 0.3
2015-Aug-26 07:33N 40°38' W 074°08'0 0.0
2015-Aug-26 04:32N 40°38' W 074°08'1 1.0
2015-Aug-26 03:27N 40°39' W 074°07'1 1.1
2015-Aug-26 02:30N 40°39' W 074°08'0 0.0
2015-Aug-26 01:31N 40°39' W 074°08'0 0.0
2015-Aug-26 00:31N 40°39' W 074°08'0 0.0
2015-Aug-25 23:32N 40°39' W 074°08'0 0.0
2015-Aug-25 22:32N 40°39' W 074°08'2 0.4
2015-Aug-25 18:33N 40°39' W 074°10'2 1.3
2015-Aug-25 17:17N 40°38' W 074°08'0 0.0
2015-Aug-25 16:30N 40°38' W 074°08'0 0.0
2015-Aug-25 15:28N 40°38' W 074°08'0 0.0
2015-Aug-25 14:31N 40°38' W 074°08'1 0.6
2015-Aug-25 13:33N 40°38' W 074°09'2 2.2
2015-Aug-25 12:33N 40°38' W 074°11'2 2.1
2015-Aug-25 11:29N 40°36' W 074°12'0 0.0
2015-Aug-25 10:30N 40°36' W 074°12'3 1.0
2015-Aug-25 07:21N 40°33' W 074°14'6 7.3
2015-Aug-25 06:33N 40°39' W 074°11'2 2.4
2015-Aug-25 05:31N 40°38' W 074°08'0 0.0
2015-Aug-25 04:31N 40°38' W 074°08'0 0.0
2015-Aug-25 03:32N 40°38' W 074°08'0 0.0
2015-Aug-25 02:12N 40°38' W 074°08'0 0.0
2015-Aug-25 01:25N 40°38' W 074°08'0 0.0
2015-Aug-25 00:28N 40°38' W 074°08'1 0.4
2015-Aug-24 21:32N 40°38' W 074°10'1 0.6
2015-Aug-24 19:28N 40°38' W 074°08'0 0.0
2015-Aug-24 18:29N 40°38' W 074°08'0 0.0
2015-Aug-24 17:29N 40°38' W 074°08'0 0.0
2015-Aug-24 16:24N 40°38' W 074°08'0 0.0
2015-Aug-24 15:31N 40°38' W 074°08'0 0.0
2015-Aug-24 13:32N 40°38' W 074°08'0 0.0
2015-Aug-24 12:29N 40°38' W 074°08'0 0.0
2015-Aug-24 11:23N 40°38' W 074°08'0 0.0
2015-Aug-24 10:33N 40°38' W 074°08'0 0.0
2015-Aug-24 09:33N 40°38' W 074°08'0 0.0
2015-Aug-24 08:31N 40°38' W 074°08'0 0.0
2015-Aug-24 06:26N 40°38' W 074°08'0 0.0
2015-Aug-24 05:18N 40°38' W 074°08'0 0.0
2015-Aug-24 04:13N 40°38' W 074°08'0 0.0
2015-Aug-24 03:25N 40°38' W 074°08'0 0.0
2015-Aug-24 02:32N 40°38' W 074°08'0 0.0
2015-Aug-24 01:21N 40°38' W 074°08'0 0.0
2015-Aug-24 00:33N 40°38' W 074°08'0 0.0
2015-Aug-23 23:31N 40°39' W 074°08'0 0.0
2015-Aug-23 22:32N 40°39' W 074°08'0 0.0
2015-Aug-23 21:20N 40°38' W 074°08'0 0.0
2015-Aug-23 20:26N 40°38' W 074°08'0 0.0
2015-Aug-23 19:27N 40°38' W 074°08'0 0.0
2015-Aug-23 18:22N 40°38' W 074°08'0 0.0
2015-Aug-23 17:28N 40°38' W 074°08'0 0.0
2015-Aug-23 16:26N 40°38' W 074°08'0 0.0
2015-Aug-23 15:29N 40°38' W 074°08'0 0.4
2015-Aug-23 14:31N 40°39' W 074°08'6 3.2
2015-Aug-23 12:32N 40°33' W 074°14'6 5.9
2015-Aug-23 11:33N 40°39' W 074°11'2 1.7
2015-Aug-23 10:22N 40°38' W 074°08'0 0.0
2015-Aug-23 09:29N 40°38' W 074°08'0 0.0
2015-Aug-23 08:29N 40°38' W 074°08'0 0.0
2015-Aug-23 07:30N 40°38' W 074°08'0 0.0
2015-Aug-23 06:31N 40°38' W 074°08'0 0.0
2015-Aug-23 05:31N 40°38' W 074°08'0 0.0
2015-Aug-23 04:26N 40°38' W 074°08'5 4.0
2015-Aug-23 03:14N 40°35' W 074°13'4 5.7
2015-Aug-23 02:33N 40°39' W 074°11'2 2.2
2015-Aug-23 01:31N 40°38' W 074°08'0 0.0
2015-Aug-23 00:27N 40°38' W 074°08'0 0.0
2015-Aug-22 23:22N 40°38' W 074°08'0 0.0
2015-Aug-22 22:26N 40°38' W 074°08'0 0.0
2015-Aug-22 21:32N 40°38' W 074°08'0 0.0
2015-Aug-22 20:30N 40°38' W 074°08'0 0.0
2015-Aug-22 19:25N 40°38' W 074°08'0 0.0
2015-Aug-22 18:31N 40°38' W 074°08'2 2.6
2015-Aug-22 17:33N 40°39' W 074°05'2 2.4
2015-Aug-22 16:32N 40°38' W 074°08'0 0.0
2015-Aug-22 15:32N 40°38' W 074°08'0 0.0
2015-Aug-22 14:33N 40°38' W 074°08'0 0.0
2015-Aug-22 13:27N 40°38' W 074°08'0 0.0
2015-Aug-22 12:28N 40°38' W 074°08'0 0.0
2015-Aug-22 11:29N 40°38' W 074°08'0 0.0
2015-Aug-22 10:32N 40°38' W 074°08'0 0.0
2015-Aug-22 09:24N 40°38' W 074°08'0 0.0
2015-Aug-22 08:31N 40°38' W 074°08'0 0.0
2015-Aug-22 07:31N 40°38' W 074°08'0 0.0
2015-Aug-22 06:26N 40°38' W 074°08'0 0.0
2015-Aug-22 05:33N 40°38' W 074°08'0 0.0
2015-Aug-22 04:33N 40°38' W 074°08'0 0.0
2015-Aug-22 03:28N 40°38' W 074°08'0 0.0
2015-Aug-22 02:29N 40°38' W 074°08'0 0.0
2015-Aug-22 01:32N 40°38' W 074°08'0 0.0
2015-Aug-22 00:30N 40°38' W 074°08'0 0.2
2015-Aug-21 23:33N 40°39' W 074°08'4 3.1
2015-Aug-21 22:18N 40°36' W 074°12'0 0.0
2015-Aug-21 21:25N 40°36' W 074°12'4 4.2
2015-Aug-21 20:28N 40°38' W 074°08'0 0.0
2015-Aug-21 19:33N 40°38' W 074°08'0 0.0
2015-Aug-21 18:31N 40°38' W 074°08'0 0.0
2015-Aug-21 17:32N 40°38' W 074°08'0 0.0
2015-Aug-21 16:09N 40°38' W 074°08'0 0.0
2015-Aug-21 15:33N 40°38' W 074°08'0 0.0
2015-Aug-21 14:28N 40°38' W 074°08'0 0.0
2015-Aug-21 13:22N 40°38' W 074°08'0 0.1
2015-Aug-21 12:33N 40°39' W 074°08'4 3.4
2015-Aug-21 11:27N 40°37' W 074°12'5 5.5
2015-Aug-21 10:33N 40°39' W 074°07'1 1.1
2015-Aug-21 09:33N 40°38' W 074°08'0 0.0
2015-Aug-21 08:33N 40°38' W 074°08'0 0.0
2015-Aug-21 07:30N 40°38' W 074°08'0 0.0
2015-Aug-21 06:25N 40°38' W 074°08'0 0.0
2015-Aug-21 05:31N 40°38' W 074°08'0 0.0
2015-Aug-21 04:32N 40°38' W 074°08'0 0.0
2015-Aug-21 03:33N 40°38' W 074°08'0 0.0
2015-Aug-21 02:33N 40°38' W 074°08'0 0.0
2015-Aug-21 01:31N 40°38' W 074°08'2 1.7
2015-Aug-21 00:34N 40°39' W 074°10'4 3.8
2015-Aug-20 23:31N 40°35' W 074°12'4 3.5
2015-Aug-20 22:27N 40°32' W 074°15'1 1.0
2015-Aug-20 21:13N 40°33' W 074°15'4 2.0
2015-Aug-20 19:16N 40°37' W 074°12'5 6.6
2015-Aug-20 18:33N 40°39' W 074°07'0 0.0
2015-Aug-20 17:33N 40°39' W 074°07'1 0.5
2015-Aug-20 16:31N 40°39' W 074°07'0 0.0
2015-Aug-20 15:32N 40°39' W 074°07'0 0.1
2015-Aug-20 14:33N 40°39' W 074°07'  

Dump ship's entire track history